CTA6 weather

Bracebridge (Tinks) Airport
Bracebridge, Ontario, Canada

Public forecast

Using degrees Celsius for public forecast. Weather courtesy of forecast.io.

METAR (pilot weather report)

Closest report is Muskoka Airport, 5.1 nm (9.4 km) ESE. Retrieved 2019/05/21 16:00 UTC (21 minutes ago):

CYQA 211600Z AUTO 31010G17KT 9SM SCT039 13/04 A3012 RMK SLP207

TAF (pilot weather forecast)

Closest forecast is Muskoka Airport, 5.1 nm (9.4 km) ESE. Retrieved 2019/05/21 14:39 UTC (2 hours ago):

TAF CYQA 211338Z 2114/2202 31010G20KT P6SM FEW025 TEMPO 2114/2116 BKN020 FM211600 32010G20KT P6SM SCT030 TEMPO 2116/2120 BKN030 BECMG 2122/2124 32008KT FM220100 VRB03KT P6SM SKC RMK FCST BASED ON AUTO OBS. NXT FCST BY 212000Z